Time;durP1;ratioP1;P1;durP2;ratioP2;P2;SDS_P1;SDS_P2;PMS_P1;PMS_P2;Temp;Humidity;BMP_temperature;BMP_pressure;BME280_temperature;BME280_humidity;BME280_pressure;Samples;Min_cycle;Max_cycle;Signal;HPM_P1;HPM_P2
2023/12/30 00:00:57;;;;;;;14.00;2.08;;;;;;;8.05;100.00;100660.50;4978961;28;20026;-86
2023/12/30 00:03:22;;;;;;;10.05;1.38;;;;;;;7.99;100.00;100666.44;4982533;28;20059;-87
2023/12/30 00:05:48;;;;;;;14.10;1.13;;;;;;;8.00;100.00;100659.97;4998721;28;20094;-87
2023/12/30 00:08:14;;;;;;;12.80;1.55;;;;;;;8.03;100.00;100660.63;4974999;28;20397;-86
2023/12/30 00:10:40;;;;;;;14.43;1.40;;;;;;;7.87;100.00;100652.69;5011423;28;20037;-89
2023/12/30 00:13:07;;;;;;;16.48;1.63;;;;;;;7.87;100.00;100658.13;5005328;28;20549;-87
2023/12/30 00:15:32;;;;;;;10.68;1.30;;;;;;;7.86;100.00;100661.84;4975080;28;20033;-88
2023/12/30 00:17:57;;;;;;;12.63;1.02;;;;;;;7.75;100.00;100672.63;4996919;28;20034;-88
2023/12/30 00:20:25;;;;;;;9.27;1.67;;;;;;;7.74;100.00;100676.34;4983729;28;20030;-88
2023/12/30 00:22:51;;;;;;;16.27;1.67;;;;;;;7.76;100.00;100681.69;4984142;28;20029;-89
2023/12/30 00:25:16;;;;;;;12.20;1.23;;;;;;;7.79;100.00;100671.44;4999067;28;20052;-86
2023/12/30 00:27:41;;;;;;;16.55;1.42;;;;;;;7.85;100.00;100670.97;5013623;28;20116;-88
2023/12/30 00:30:08;;;;;;;15.20;1.30;;;;;;;7.80;100.00;100677.75;4983733;28;20091;-87
2023/12/30 00:32:33;;;;;;;8.98;1.40;;;;;;;7.86;100.00;100683.63;4995830;28;20029;-87
2023/12/30 00:34:59;;;;;;;10.65;1.02;;;;;;;7.76;100.00;100688.00;4998438;28;20368;-87
2023/12/30 00:37:24;;;;;;;16.80;1.88;;;;;;;7.71;100.00;100699.22;4997460;28;20049;-87
2023/12/30 00:39:50;;;;;;;16.13;2.10;;;;;;;7.64;100.00;100699.75;4979275;28;20037;-86
2023/12/30 00:42:16;;;;;;;9.57;1.33;;;;;;;7.79;100.00;100698.69;4997056;28;20033;-87
2023/12/30 00:44:41;;;;;;;17.05;1.00;;;;;;;7.72;100.00;100711.88;4998122;28;20080;-86
2023/12/30 00:47:07;;;;;;;8.48;1.48;;;;;;;7.65;100.00;100715.13;4998857;28;20553;-87
2023/12/30 00:49:32;;;;;;;15.65;1.92;;;;;;;7.68;100.00;100714.91;4998847;28;20033;-87
2023/12/30 00:51:58;;;;;;;12.10;1.20;;;;;;;7.72;100.00;100717.31;4983031;28;20029;-87
2023/12/30 00:54:23;;;;;;;7.57;1.67;;;;;;;7.68;100.00;100721.22;4998755;28;20049;-87
2023/12/30 00:56:49;;;;;;;19.60;1.52;;;;;;;7.68;100.00;100718.50;4988655;28;20029;-88
2023/12/30 00:59:14;;;;;;;12.30;1.25;;;;;;;7.61;100.00;100727.19;4985754;28;20144;-88
2023/12/30 01:01:40;;;;;;;14.13;1.52;;;;;;;7.69;100.00;100724.81;4979708;28;20095;-88
2023/12/30 01:04:06;;;;;;;14.23;1.77;;;;;;;7.62;100.00;100728.94;4981724;28;20036;-88
2023/12/30 01:06:31;;;;;;;11.98;1.92;;;;;;;7.66;100.00;100727.78;4998705;28;20508;-88
2023/12/30 01:08:58;;;;;;;18.30;1.88;;;;;;;7.66;100.00;100739.53;5010111;28;20461;-88
2023/12/30 01:11:23;;;;;;;16.42;1.65;;;;;;;7.67;100.00;100734.97;4996970;28;20036;-88
2023/12/30 01:13:49;;;;;;;15.20;1.58;;;;;;;7.67;100.00;100740.41;5013417;28;20120;-88
2023/12/30 01:16:16;;;;;;;18.08;2.63;;;;;;;7.68;100.00;100750.34;4995463;28;20153;-88
2023/12/30 01:18:43;;;;;;;10.85;1.98;;;;;;;7.68;100.00;100748.47;4999275;28;20033;-88
2023/12/30 01:21:09;;;;;;;16.70;2.50;;;;;;;7.57;100.00;100750.19;4990469;28;20042;-87
2023/12/30 01:23:34;;;;;;;17.90;1.65;;;;;;;7.65;100.00;100742.38;4993796;28;20379;-88
2023/12/30 01:25:59;;;;;;;21.52;2.45;;;;;;;7.58;100.00;100751.97;4992395;28;20379;-88
2023/12/30 01:28:25;;;;;;;19.30;2.15;;;;;;;7.57;100.00;100764.69;4974025;28;20761;-88
2023/12/30 01:30:52;;;;;;;17.73;2.08;;;;;;;7.68;100.00;100761.25;4982856;28;20041;-88
2023/12/30 01:33:19;;;;;;;26.58;2.85;;;;;;;7.64;100.00;100766.03;5015579;28;20402;-88
2023/12/30 01:35:44;;;;;;;22.33;1.85;;;;;;;7.59;100.00;100767.31;4982072;28;20548;-87
2023/12/30 01:38:10;;;;;;;19.45;1.80;;;;;;;7.64;100.00;100765.13;5027535;28;20037;-86
2023/12/30 01:40:36;;;;;;;17.48;1.85;;;;;;;7.63;100.00;100766.13;4999085;28;20070;-87
2023/12/30 01:43:02;;;;;;;11.77;1.70;;;;;;;7.66;100.00;100776.81;5001318;28;20037;-86
2023/12/30 01:45:28;;;;;;;18.35;2.00;;;;;;;7.69;100.00;100776.59;4985898;28;20086;-86
2023/12/30 01:47:54;;;;;;;12.98;1.75;;;;;;;7.70;100.00;100786.53;5017673;28;20041;-87
2023/12/30 01:50:21;;;;;;;14.80;1.80;;;;;;;7.66;100.00;100774.97;4985324;28;20733;-86
2023/12/30 01:52:47;;;;;;;13.20;2.08;;;;;;;7.70;100.00;100772.91;5013498;28;20025;-86
2023/12/30 01:55:17;;;;;;;18.17;2.53;;;;;;;7.69;100.00;100779.31;5015465;28;20034;-87
2023/12/30 01:57:44;;;;;;;17.80;2.47;;;;;;;7.67;100.00;100768.56;5034088;28;20486;-87
2023/12/30 02:00:19;;;;;;;19.15;2.20;;;;;;;7.63;100.00;100777.03;5012907;28;20059;-87
2023/12/30 02:02:46;;;;;;;22.08;2.33;;;;;;;7.64;100.00;100771.47;5014426;28;20037;-86
2023/12/30 02:05:12;;;;;;;18.30;1.90;;;;;;;7.59;100.00;100781.81;5001548;28;20032;-86
2023/12/30 02:07:39;;;;;;;24.42;3.63;;;;;;;7.64;100.00;100776.03;4984416;28;20034;-86
2023/12/30 02:10:06;;;;;;;19.38;2.22;;;;;;;7.51;100.00;100785.06;5016654;28;20026;-86
2023/12/30 02:12:32;;;;;;;17.25;1.90;;;;;;;7.53;100.00;100783.09;5034679;28;20132;-87
2023/12/30 02:15:21;;;;;;;20.35;2.20;;;;;;;7.65;100.00;100792.28;4981226;28;20179;-86
2023/12/30 02:17:50;;;;;;;20.27;1.92;;;;;;;7.54;100.00;100801.19;5016321;28;20037;-86
2023/12/30 02:20:15;;;;;;;15.23;2.33;;;;;;;7.42;100.00;100810.19;5010099;28;20025;-86
2023/12/30 02:22:45;;;;;;;17.40;1.80;;;;;;;7.49;100.00;100805.19;4999358;28;20380;-87
2023/12/30 02:25:11;;;;;;;19.73;1.73;;;;;;;7.50;100.00;100796.06;5016064;28;20127;-86
2023/12/30 02:27:37;;;;;;;11.77;1.80;;;;;;;7.58;100.00;100795.56;5001130;28;20053;-87
2023/12/30 02:30:03;;;;;;;26.77;2.08;;;;;;;7.48;100.00;100804.34;4995835;28;20113;-87
2023/12/30 02:32:28;;;;;;;16.10;1.83;;;;;;;7.49;100.00;100803.38;4999181;28;20037;-87
2023/12/30 02:34:54;;;;;;;13.35;1.80;;;;;;;7.51;100.00;100809.59;4991954;28;20026;-87
2023/12/30 02:37:19;;;;;;;26.67;2.75;;;;;;;7.59;100.00;100802.72;5016552;28;20404;-87
2023/12/30 02:39:44;;;;;;;26.50;1.92;;;;;;;7.52;100.00;100802.28;4985131;28;20033;-87
2023/12/30 02:42:10;;;;;;;23.85;1.83;;;;;;;7.48;100.00;100807.06;5016855;28;20398;-87
2023/12/30 02:44:37;;;;;;;27.92;4.13;;;;;;;7.57;100.00;100807.41;4983872;28;20028;-86
2023/12/30 02:47:02;;;;;;;20.20;2.28;;;;;;;7.54;100.00;100816.66;5014731;28;20120;-86
2023/12/30 02:49:31;;;;;;;26.48;2.65;;;;;;;7.61;100.00;100811.66;4984260;28;20120;-87
2023/12/30 02:51:58;;;;;;;18.80;2.50;;;;;;;7.61;100.00;100812.56;5015075;28;20072;-88
2023/12/30 02:54:23;;;;;;;21.48;2.22;;;;;;;7.61;100.00;100808.94;4998239;28;20129;-87
2023/12/30 02:56:49;;;;;;;25.13;2.30;;;;;;;7.62;100.00;100810.69;4984857;28;20034;-88
2023/12/30 02:59:14;;;;;;;22.58;3.38;;;;;;;7.55;100.00;100802.94;4978782;28;20088;-88
2023/12/30 03:01:40;;;;;;;20.40;2.25;;;;;;;7.57;100.00;100805.56;5027509;28;20103;-88
2023/12/30 03:04:05;;;;;;;12.35;1.90;;;;;;;7.51;100.00;100811.41;4997754;28;20026;-87
2023/12/30 03:06:31;;;;;;;29.10;2.78;;;;;;;7.65;100.00;100803.19;5011008;28;20026;-89
2023/12/30 03:08:56;;;;;;;13.73;1.60;;;;;;;7.67;100.00;100803.09;4992826;28;20049;-88
2023/12/30 03:11:23;;;;;;;17.35;1.63;;;;;;;7.63;100.00;100799.69;5016035;28;20048;-88
2023/12/30 03:13:48;;;;;;;16.05;1.70;;;;;;;7.73;100.00;100811.72;4983117;28;20129;-87
2023/12/30 03:16:14;;;;;;;17.52;1.83;;;;;;;7.65;100.00;100814.09;5009747;28;20116;-88
2023/12/30 03:18:43;;;;;;;19.85;2.40;;;;;;;7.60;100.00;100809.94;5016904;28;20124;-88
2023/12/30 03:21:10;;;;;;;14.48;2.65;;;;;;;7.57;100.00;100818.31;4997022;28;20022;-89
2023/12/30 03:23:36;;;;;;;13.50;1.77;;;;;;;7.61;100.00;100817.13;5014867;28;20025;-88
2023/12/30 03:26:02;;;;;;;12.02;1.55;;;;;;;7.60;100.00;100829.88;5014947;28;20509;-88
2023/12/30 03:28:28;;;;;;;16.77;2.10;;;;;;;7.47;100.00;100831.69;5002898;28;20425;-88
2023/12/30 03:30:54;;;;;;;16.30;1.40;;;;;;;7.38;100.00;100827.72;4980088;28;20038;-88
2023/12/30 03:33:21;;;;;;;14.07;1.73;;;;;;;7.39;100.00;100829.44;4999991;28;20585;-89
2023/12/30 03:35:46;;;;;;;8.60;1.35;;;;;;;7.42;100.00;100842.88;5001407;28;20033;-88
2023/12/30 03:38:12;;;;;;;17.33;2.15;;;;;;;7.39;100.00;100840.34;4993245;28;20021;-89
2023/12/30 03:40:37;;;;;;;17.42;1.85;;;;;;;7.28;100.00;100829.28;5016746;28;20032;-89
2023/12/30 03:43:03;;;;;;;18.08;1.80;;;;;;;7.33;100.00;100830.75;5017680;28;20440;-89
2023/12/30 03:45:29;;;;;;;19.20;1.67;;;;;;;7.25;100.00;100840.41;4989050;28;20084;-90
2023/12/30 03:47:55;;;;;;;15.07;1.65;;;;;;;7.31;100.00;100839.97;5011389;28;20060;-89
2023/12/30 03:50:21;;;;;;;10.25;1.23;;;;;;;7.30;100.00;100836.38;5022612;28;20036;-88
2023/12/30 03:52:46;;;;;;;20.63;1.90;;;;;;;7.35;100.00;100841.53;5016776;28;20025;-89
2023/12/30 03:55:12;;;;;;;16.27;1.75;;;;;;;7.35;100.00;100836.09;4985909;28;20025;-88
2023/12/30 03:57:39;;;;;;;25.20;2.95;;;;;;;7.27;100.00;100842.03;5013720;28;20049;-87
2023/12/30 04:00:06;;;;;;;12.02;2.15;;;;;;;7.30;100.00;100838.25;4984249;28;20049;-88
2023/12/30 04:02:33;;;;;;;18.35;1.40;;;;;;;7.23;100.00;100843.22;4991734;28;20041;-88
2023/12/30 04:04:59;;;;;;;13.80;1.60;;;;;;;7.23;100.00;100845.06;4982604;28;20072;-88
2023/12/30 04:07:25;;;;;;;23.25;1.65;;;;;;;7.21;100.00;100844.28;4997003;28;20033;-88
2023/12/30 04:09:52;;;;;;;7.05;1.17;;;;;;;7.20;100.00;100842.53;4998400;28;20044;-88
2023/12/30 04:12:20;;;;;;;12.27;1.50;;;;;;;7.16;100.00;100844.59;4976580;28;20044;-88
2023/12/30 04:14:46;;;;;;;14.27;1.30;;;;;;;7.20;100.00;100837.09;4977902;28;20104;-88
2023/12/30 04:17:11;;;;;;;10.50;1.27;;;;;;;7.10;100.00;100834.97;4981072;28;20479;-88
2023/12/30 04:19:36;;;;;;;15.00;1.48;;;;;;;7.20;100.00;100846.16;4981423;28;20037;-88
2023/12/30 04:22:02;;;;;;;19.13;1.70;;;;;;;7.13;100.00;100839.34;4983171;28;20129;-89
2023/12/30 04:24:27;;;;;;;16.30;1.48;;;;;;;7.11;100.00;100839.44;4984140;28;20438;-89
2023/12/30 04:26:55;;;;;;;14.75;1.52;;;;;;;6.99;100.00;100846.56;5000973;28;20079;-88
2023/12/30 04:29:22;;;;;;;24.02;2.33;;;;;;;6.93;100.00;100848.78;5017133;28;20120;-88
2023/12/30 04:31:48;;;;;;;14.05;1.30;;;;;;;6.87;100.00;100851.91;4997421;28;20064;-88
2023/12/30 04:34:14;;;;;;;15.02;1.33;;;;;;;7.00;100.00;100839.25;4996610;28;20033;-89
2023/12/30 04:36:39;;;;;;;18.30;1.50;;;;;;;6.94;100.00;100845.97;4999167;28;20368;-88
2023/12/30 04:39:06;;;;;;;18.33;1.35;;;;;;;6.91;100.00;100851.63;5017245;28;20087;-89
2023/12/30 04:41:32;;;;;;;26.20;1.58;;;;;;;6.94;100.00;100845.97;5016227;28;20108;-89
2023/12/30 04:43:57;;;;;;;16.52;1.80;;;;;;;6.90;100.00;100851.72;4997270;28;20128;-88
2023/12/30 04:46:25;;;;;;;16.02;1.60;;;;;;;6.85;100.00;100856.56;4994330;28;20050;-88
2023/12/30 04:48:52;;;;;;;18.75;1.48;;;;;;;6.87;100.00;100854.63;4995884;28;20510;-88
2023/12/30 04:51:18;;;;;;;27.30;3.03;;;;;;;6.79;100.00;100852.41;4985917;28;20128;-88
2023/12/30 04:53:45;;;;;;;27.52;2.28;;;;;;;6.84;100.00;100839.38;4995422;28;20053;-89
2023/12/30 04:56:17;;;;;;;20.17;1.67;;;;;;;6.87;100.00;100854.63;4982173;28;20218;-88
2023/12/30 04:58:42;;;;;;;17.30;1.38;;;;;;;6.81;100.00;100855.91;5021475;28;20045;-87
2023/12/30 05:01:08;;;;;;;23.92;1.50;;;;;;;6.86;100.00;100856.47;4999545;28;20428;-88
2023/12/30 05:03:35;;;;;;;19.52;1.70;;;;;;;6.85;100.00;100854.72;4996764;28;20033;-88
2023/12/30 05:06:00;;;;;;;17.55;2.15;;;;;;;6.79;100.00;100861.44;4995679;28;20036;-88
2023/12/30 05:08:26;;;;;;;23.80;1.45;;;;;;;6.78;100.00;100866.97;4995919;28;20037;-88
2023/12/30 05:10:51;;;;;;;20.75;2.28;;;;;;;6.85;100.00;100868.31;4999779;28;20036;-88
2023/12/30 05:13:18;;;;;;;14.77;2.17;;;;;;;6.74;100.00;100866.31;5002274;28;20044;-89
2023/12/30 05:15:43;;;;;;;16.00;1.30;;;;;;;6.76;100.00;100867.06;4985465;28;20026;-88
2023/12/30 05:18:11;;;;;;;20.98;2.20;;;;;;;6.73;100.00;100864.53;4974941;28;20471;-88
2023/12/30 05:20:36;;;;;;;27.02;2.50;;;;;;;6.79;100.00;100869.59;5003008;28;20038;-87
2023/12/30 05:23:04;;;;;;;16.83;2.63;;;;;;;6.85;100.00;100878.34;4999487;28;20052;-88
2023/12/30 05:25:31;;;;;;;25.25;1.77;;;;;;;6.84;100.00;100884.75;4990472;28;20163;-89
2023/12/30 05:27:56;;;;;;;24.17;2.40;;;;;;;6.77;100.00;100881.53;4998214;28;20069;-89
2023/12/30 05:30:23;;;;;;;26.70;2.83;;;;;;;6.74;100.00;100881.72;4991248;28;20037;-89
2023/12/30 05:32:48;;;;;;;19.02;2.10;;;;;;;6.70;100.00;100885.63;4999978;28;20037;-89
2023/12/30 05:35:14;;;;;;;23.88;1.98;;;;;;;6.71;100.00;100885.53;5003307;28;20032;-88
2023/12/30 05:37:40;;;;;;;29.55;2.35;;;;;;;6.70;100.00;100881.06;4999412;28;20033;-87
2023/12/30 05:40:08;;;;;;;19.00;2.00;;;;;;;6.71;100.00;100888.25;4984506;28;20029;-88
2023/12/30 05:42:34;;;;;;;20.05;2.10;;;;;;;6.68;100.00;100888.44;5012261;28;20072;-88
2023/12/30 05:45:01;;;;;;;15.50;1.40;;;;;;;6.74;100.00;100896.22;5015519;28;20083;-88
2023/12/30 05:47:26;;;;;;;31.70;2.05;;;;;;;6.71;100.00;100893.69;4986803;28;20045;-89
2023/12/30 05:49:52;;;;;;;23.98;2.30;;;;;;;6.63;100.00;100899.59;5002990;28;20029;-89
2023/12/30 05:52:18;;;;;;;28.73;2.47;;;;;;;6.69;100.00;100892.03;5018211;28;20120;-87
2023/12/30 05:54:45;;;;;;;18.05;2.63;;;;;;;6.61;100.00;100892.53;4995105;28;20022;-88
2023/12/30 05:57:10;;;;;;;26.90;1.67;;;;;;;6.62;100.00;100899.69;5000461;28;20026;-87
2023/12/30 05:59:35;;;;;;;13.90;2.17;;;;;;;6.63;100.00;100896.88;5001531;28;20522;-88
2023/12/30 06:02:02;;;;;;;20.33;1.27;;;;;;;6.62;100.00;100896.97;4999396;28;20038;-89
2023/12/30 06:04:28;;;;;;;27.35;1.85;;;;;;;6.59;100.00;100895.34;5002638;28;20029;-88
2023/12/30 06:06:55;;;;;;;20.65;2.00;;;;;;;6.65;100.00;100899.50;4997297;28;20026;-89
2023/12/30 06:09:20;;;;;;;18.60;1.70;;;;;;;6.58;100.00;100903.59;5003674;28;20118;-89
2023/12/30 06:11:48;;;;;;;22.15;2.10;;;;;;;6.58;100.00;100904.47;4986152;28;20121;-89
2023/12/30 06:14:14;;;;;;;16.40;1.50;;;;;;;6.56;100.00;100905.50;5002324;28;20025;-89
2023/12/30 06:16:39;;;;;;;14.65;1.33;;;;;;;6.59;100.00;100910.78;5005300;28;20040;-90
2023/12/30 06:19:05;;;;;;;15.68;2.50;;;;;;;6.63;100.00;100915.94;5005363;28;20056;-89
2023/12/30 06:21:30;;;;;;;18.20;1.63;;;;;;;6.52;100.00;100915.72;5023735;28;20029;-88
2023/12/30 06:23:55;;;;;;;24.30;2.65;;;;;;;6.54;100.00;100924.69;4985413;28;20132;-88
2023/12/30 06:26:21;;;;;;;17.65;1.75;;;;;;;6.56;100.00;100927.28;4986358;28;20398;-87
2023/12/30 06:28:46;;;;;;;20.63;1.75;;;;;;;6.51;100.00;100922.16;4981825;28;20574;-88
2023/12/30 06:31:12;;;;;;;15.23;1.77;;;;;;;6.53;100.00;100928.34;4986626;28;20029;-88
2023/12/30 06:33:37;;;;;;;18.10;1.60;;;;;;;6.44;100.00;100935.25;4997243;28;20506;-89
2023/12/30 06:36:03;;;;;;;17.15;1.67;;;;;;;6.41;100.00;100934.53;5001044;28;21386;-87
2023/12/30 06:38:29;;;;;;;17.73;1.67;;;;;;;6.40;100.00;100939.09;4981081;28;20045;-88
2023/12/30 06:40:55;;;;;;;33.05;3.08;;;;;;;6.35;100.00;100945.81;4998752;28;20036;-88
2023/12/30 06:43:21;;;;;;;19.02;1.58;;;;;;;6.38;100.00;100951.06;4983724;28;20115;-88
2023/12/30 06:45:46;;;;;;;16.25;1.67;;;;;;;6.35;100.00;100952.09;5013902;28;20470;-88
2023/12/30 06:48:12;;;;;;;25.95;1.90;;;;;;;6.28;100.00;100948.00;4985895;28;20044;-88
2023/12/30 06:50:38;;;;;;;16.38;1.33;;;;;;;6.35;100.00;100938.50;4978417;28;20510;-88
2023/12/30 06:53:03;;;;;;;20.85;2.70;;;;;;;6.36;100.00;100940.28;4984349;28;20033;-92
2023/12/30 06:55:29;;;;;;;22.63;2.08;;;;;;;6.30;100.00;100946.06;4984151;28;20034;-89
2023/12/30 06:57:54;;;;;;;22.33;2.08;;;;;;;6.30;100.00;100946.06;4987608;28;20120;-95
2023/12/30 07:00:20;;;;;;;22.00;2.00;;;;;;;6.28;100.00;100944.41;5005808;28;20140;-88
2023/12/30 07:02:47;;;;;;;18.30;1.80;;;;;;;6.26;100.00;100944.47;5008908;28;20035;-88
2023/12/30 07:05:12;;;;;;;22.35;1.80;;;;;;;6.31;100.00;100955.97;5000066;28;20037;-91
2023/12/30 07:07:38;;;;;;;15.23;1.27;;;;;;;6.29;100.00;100936.16;4988756;28;20030;-88
2023/12/30 07:10:06;;;;;;;17.55;1.63;;;;;;;6.29;100.00;100955.19;5015660;28;20026;-89
2023/12/30 07:12:31;;;;;;;22.70;2.15;;;;;;;6.25;100.00;100961.78;4998876;28;20037;-87
2023/12/30 07:14:57;;;;;;;22.08;1.73;;;;;;;6.25;100.00;100961.78;4996268;28;20022;-86
2023/12/30 07:17:25;;;;;;;19.27;2.05;;;;;;;6.23;100.00;100959.16;4984457;28;20033;-87
2023/12/30 07:19:50;;;;;;;45.00;2.95;;;;;;;6.25;100.00;100964.50;4987393;28;20039;-86
2023/12/30 07:22:19;;;;;;;18.25;1.45;;;;;;;6.25;100.00;100969.94;4994951;28;20045;-87
2023/12/30 07:24:45;;;;;;;14.00;1.48;;;;;;;6.28;100.00;100967.03;4985535;28;20033;-88
2023/12/30 07:27:13;;;;;;;15.30;1.45;;;;;;;6.23;100.00;100967.31;4985571;28;20306;-88
2023/12/30 07:29:39;;;;;;;21.85;1.77;;;;;;;6.28;100.00;100972.47;5016710;28;20039;-87
2023/12/30 07:32:04;;;;;;;23.02;1.85;;;;;;;6.35;100.00;100967.56;5000128;28;20033;-87
2023/12/30 07:34:31;;;;;;;33.42;2.30;;;;;;;6.35;100.00;100973.84;4984582;28;20041;-89
2023/12/30 07:37:01;;;;;;;18.77;1.75;;;;;;;6.27;100.00;100968.00;4999523;28;22116;-86
2023/12/30 07:39:29;;;;;;;18.40;3.20;;;;;;;6.35;100.00;100975.72;4980633;28;20061;-86
2023/12/30 07:41:55;;;;;;;24.08;2.08;;;;;;;6.33;100.00;100980.34;4999766;28;20025;-86
2023/12/30 07:44:21;;;;;;;18.95;1.63;;;;;;;6.22;100.00;100978.28;4984248;28;20513;-86
2023/12/30 07:46:46;;;;;;;24.90;2.72;;;;;;;6.19;100.00;100975.75;5011974;28;20495;-88
2023/12/30 07:49:12;;;;;;;18.50;1.90;;;;;;;6.18;100.00;100982.13;4973630;28;20121;-88
2023/12/30 07:51:37;;;;;;;22.88;2.10;;;;;;;6.15;100.00;100982.31;4982967;28;20048;-87
2023/12/30 07:54:04;;;;;;;20.10;1.90;;;;;;;6.18;100.00;100988.47;5024179;28;20037;-88
2023/12/30 07:56:31;;;;;;;24.50;3.28;;;;;;;6.18;100.00;100988.47;5015515;28;20034;-86
2023/12/30 07:58:56;;;;;;;27.48;2.28;;;;;;;6.23;100.00;100994.50;5028930;28;20061;-86
2023/12/30 08:01:22;;;;;;;22.33;3.00;;;;;;;6.20;100.00;101011.00;4994005;28;20491;-87
2023/12/30 08:03:47;;;;;;;22.35;2.67;;;;;;;6.25;100.00;101006.16;4976250;28;20036;-86
2023/12/30 08:06:12;;;;;;;22.38;2.72;;;;;;;6.26;100.00;101009.75;4975706;28;20026;-87
2023/12/30 08:08:39;;;;;;;21.58;2.92;;;;;;;6.25;100.00;101011.59;4992711;28;20151;-87
2023/12/30 08:11:04;;;;;;;29.55;2.42;;;;;;;6.25;100.00;101010.72;5009750;28;20096;-86
2023/12/30 08:13:32;;;;;;;20.85;2.47;;;;;;;6.26;100.00;101015.19;5017867;28;20556;-87
2023/12/30 08:15:57;;;;;;;20.80;3.58;;;;;;;6.23;100.00;101016.25;4976424;28;20057;-87
2023/12/30 08:18:22;;;;;;;27.75;3.38;;;;;;;6.25;100.00;101022.47;4995123;28;20082;-86
2023/12/30 08:20:49;;;;;;;22.23;3.35;;;;;;;6.24;100.00;101020.69;4999998;28;20025;-87
2023/12/30 08:23:16;;;;;;;23.98;3.35;;;;;;;6.25;100.00;101021.59;4995933;28;20022;-87
2023/12/30 08:25:41;;;;;;;21.58;2.88;;;;;;;6.25;100.00;101021.59;4979268;28;20052;-87
2023/12/30 08:28:09;;;;;;;22.75;3.97;;;;;;;6.28;100.00;101016.00;4997321;28;20483;-86
2023/12/30 08:30:34;;;;;;;19.63;3.25;;;;;;;6.32;100.00;101019.41;4995725;28;20029;-86
2023/12/30 08:33:06;;;;;;;17.55;2.88;;;;;;;6.43;100.00;101014.22;4979432;28;20025;-86
2023/12/30 08:35:33;;;;;;;20.65;3.55;;;;;;;6.37;100.00;101020.88;5000654;28;20391;-86
2023/12/30 08:37:59;;;;;;;25.17;3.28;;;;;;;6.42;100.00;101018.75;5007262;28;20562;-89
2023/12/30 08:40:24;;;;;;;19.73;3.08;;;;;;;6.42;100.00;101013.31;4988716;28;20050;-90
2023/12/30 08:42:51;;;;;;;15.63;1.88;;;;;;;6.50;100.00;101023.75;5008173;28;20057;-91
2023/12/30 08:45:19;;;;;;;16.65;2.42;;;;;;;6.54;100.00;101019.00;5023241;28;20056;-90
2023/12/30 08:47:48;;;;;;;26.02;3.67;;;;;;;6.56;100.00;101022.47;5000450;28;20021;-90
2023/12/30 08:50:15;;;;;;;21.98;3.10;;;;;;;6.61;100.00;101034.00;5030579;28;20100;-89
2023/12/30 08:52:40;;;;;;;28.52;3.10;;;;;;;6.60;100.00;101024.06;5016313;28;20022;-90
2023/12/30 08:55:12;;;;;;;20.98;3.40;;;;;;;6.59;100.00;101017.75;4977470;28;20030;-89
2023/12/30 08:57:38;;;;;;;26.13;3.45;;;;;;;6.63;100.00;101013.88;5012362;28;20426;-90
2023/12/30 09:00:11;;;;;;;22.77;3.03;;;;;;;7.05;100.00;101030.41;4990789;28;20045;-87
2023/12/30 09:02:36;;;;;;;22.83;3.17;;;;;;;6.79;100.00;101019.28;4994898;28;20038;-89
2023/12/30 09:05:03;;;;;;;24.95;3.15;;;;;;;6.80;100.00;101022.84;4999777;28;20538;-90
2023/12/30 09:07:30;;;;;;;20.42;2.75;;;;;;;6.84;100.00;101020.81;4986490;28;20058;-89
2023/12/30 09:09:56;;;;;;;21.30;2.88;;;;;;;7.07;100.00;101014.84;4992987;28;20036;-90
2023/12/30 09:12:22;;;;;;;24.58;3.35;;;;;;;6.98;100.00;101020.84;4981954;28;20033;-92
2023/12/30 09:14:48;;;;;;;23.83;3.95;;;;;;;6.99;100.00;101014.47;5004943;28;20025;-90
2023/12/30 09:17:16;;;;;;;21.50;3.30;;;;;;;7.04;100.00;101025.06;4997678;28;20037;-90
2023/12/30 09:19:42;;;;;;;32.92;3.70;;;;;;;7.07;100.00;101033.91;4988824;28;20045;-90
2023/12/30 09:22:10;;;;;;;17.00;2.95;;;;;;;7.12;100.00;101041.81;5004458;28;20029;-90
2023/12/30 09:24:37;;;;;;;22.52;3.10;;;;;;;7.13;100.00;101044.44;5012615;28;20026;-90
2023/12/30 09:27:02;;;;;;;20.50;3.63;;;;;;;7.21;100.00;101046.66;4981578;28;20030;-90
2023/12/30 09:29:28;;;;;;;13.60;2.70;;;;;;;7.25;100.00;101039.19;4989170;28;20037;-89
2023/12/30 09:31:57;;;;;;;22.40;3.95;;;;;;;7.30;100.00;101050.69;4993347;28;20088;-90
2023/12/30 09:34:22;;;;;;;16.10;3.58;;;;;;;7.35;100.00;101054.84;4993657;28;20034;-90
2023/12/30 09:36:47;;;;;;;19.88;3.15;;;;;;;7.36;100.00;101050.28;4978531;28;20045;-90
2023/12/30 09:39:13;;;;;;;23.77;4.55;;;;;;;7.41;100.00;101050.00;4984383;28;20029;-90
2023/12/30 09:41:40;;;;;;;28.10;3.70;;;;;;;7.42;100.00;101051.75;4993807;28;20093;-90
2023/12/30 09:44:06;;;;;;;18.33;3.75;;;;;;;7.45;100.00;101060.59;5008696;28;20026;-90
2023/12/30 09:46:34;;;;;;;21.42;3.30;;;;;;;7.48;100.00;101062.28;4994495;28;20578;-90
2023/12/30 09:49:02;;;;;;;20.00;3.20;;;;;;;7.53;100.00;101066.44;5014194;28;20033;-95
2023/12/30 09:51:31;;;;;;;36.47;4.57;;;;;;;7.55;100.00;101059.03;4992523;28;20030;-89
2023/12/30 09:53:57;;;;;;;20.77;3.55;;;;;;;7.56;100.00;101057.22;5018125;28;20463;-89
2023/12/30 09:56:24;;;;;;;21.25;2.95;;;;;;;7.58;100.00;101046.22;5000155;28;20026;-90
2023/12/30 09:58:50;;;;;;;35.33;5.47;;;;;;;7.64;100.00;101052.16;5016554;28;20085;-89
2023/12/30 10:04:04;;;;;;;17.15;3.35;;;;;;;7.73;100.00;101059.72;5215818;23;20049;-90
2023/12/30 10:06:32;;;;;;;23.40;3.97;;;;;;;7.76;100.00;101055.06;5005711;28;20038;-89
2023/12/30 10:08:57;;;;;;;22.73;3.47;;;;;;;7.79;100.00;101066.66;5001544;28;20059;-89
2023/12/30 10:11:23;;;;;;;22.80;3.92;;;;;;;7.79;100.00;101057.56;4998499;28;20029;-90
2023/12/30 10:13:49;;;;;;;28.95;3.58;;;;;;;7.79;100.00;101042.13;4984610;28;20034;-85
2023/12/30 10:16:15;;;;;;;26.08;3.60;;;;;;;7.84;100.00;101059.03;4994155;28;20038;-90
2023/12/30 10:18:40;;;;;;;18.50;3.35;;;;;;;7.86;100.00;101064.41;4971276;28;20506;-91
2023/12/30 10:21:07;;;;;;;36.47;4.60;;;;;;;7.89;100.00;101066.94;4990549;28;20059;-91
2023/12/30 10:23:34;;;;;;;30.15;5.13;;;;;;;7.88;100.00;101059.72;4997869;28;20402;-89
2023/12/30 10:26:02;;;;;;;21.98;4.20;;;;;;;7.88;100.00;101066.03;4991650;28;20112;-90
2023/12/30 10:28:28;;;;;;;31.55;5.18;;;;;;;7.88;100.00;101063.31;5005395;28;20486;-89
2023/12/30 10:31:02;;;;;;;26.65;5.18;;;;;;;7.86;100.00;101062.53;4973298;28;20037;-86
2023/12/30 10:33:27;;;;;;;31.05;5.43;;;;;;;7.89;100.00;101056.03;4994983;28;20029;-86
2023/12/30 10:35:56;;;;;;;24.85;5.20;;;;;;;7.94;100.00;101062.06;5007197;28;20033;-88
2023/12/30 10:38:22;;;;;;;17.42;4.50;;;;;;;7.99;100.00;101059.03;4992006;28;20030;-86
2023/12/30 10:40:49;;;;;;;28.75;5.22;;;;;;;7.97;100.00;101052.78;4994702;28;20029;-87
2023/12/30 10:43:14;;;;;;;32.88;5.78;;;;;;;8.02;100.00;101059.69;5003136;28;20034;-88
2023/12/30 10:45:40;;;;;;;25.45;5.32;;;;;;;8.06;100.00;101063.97;4987946;28;20044;-88
2023/12/30 10:48:07;;;;;;;22.23;5.05;;;;;;;8.10;100.00;101070.13;4991229;28;20026;-88
2023/12/30 10:50:36;;;;;;;26.50;6.60;;;;;;;8.12;100.00;101061.81;5015911;28;20498;-87
2023/12/30 10:53:07;;;;;;;27.95;5.00;;;;;;;8.13;100.00;101071.75;5005855;28;20033;-89
2023/12/30 10:55:34;;;;;;;28.00;5.45;;;;;;;8.07;100.00;101068.44;4996098;28;20040;-89
2023/12/30 10:58:16;;;;;;;31.75;5.65;;;;;;;8.15;100.00;101067.97;4982973;28;20026;-89
2023/12/30 11:00:43;;;;;;;23.08;4.50;;;;;;;8.20;100.00;101064.91;5016300;28;20034;-89
2023/12/30 11:03:09;;;;;;;29.48;4.88;;;;;;;8.18;100.00;101069.59;4965959;28;20031;-90
2023/12/30 11:05:47;;;;;;;22.00;4.45;;;;;;;8.21;100.00;101069.41;4975327;28;20561;-90
2023/12/30 11:08:17;;;;;;;23.45;5.10;;;;;;;8.20;100.00;101070.34;4979029;28;20435;-90
2023/12/30 11:10:45;;;;;;;20.65;4.47;;;;;;;8.26;100.00;101068.13;4963176;28;20033;-90
2023/12/30 11:13:13;;;;;;;30.35;4.88;;;;;;;8.32;100.00;101057.78;4981185;28;20509;-90
2023/12/30 11:15:39;;;;;;;28.20;4.65;;;;;;;8.35;100.00;101055.72;4996183;28;20491;-89